Time;durP1;ratioP1;P1;durP2;ratioP2;P2;SDS_P1;SDS_P2;PMS_P1;PMS_P2;Temp;Humidity;BMP_temperature;BMP_pressure;BME280_temperature;BME280_humidity;BME280_pressure;Samples;Min_cycle;Max_cycle;Signal;HPM_P1;HPM_P2
2021/03/08 00:00:46;;;;;;;4.25;3.83;;;;;;;;;;5049855;28;20025;-66
2021/03/08 00:03:14;;;;;;;7.00;3.83;;;;;;;;;;5050566;28;20029;-66
2021/03/08 00:05:40;;;;;;;5.85;4.45;;;;;;;;;;5049542;28;20549;-66
2021/03/08 00:08:06;;;;;;;7.18;4.05;;;;;;;;;;5050740;28;20099;-65
2021/03/08 00:10:32;;;;;;;4.93;3.97;;;;;;;;;;5050654;28;20040;-66
2021/03/08 00:12:58;;;;;;;7.38;4.07;;;;;;;;;;5049730;28;20654;-65
2021/03/08 00:15:24;;;;;;;4.32;3.65;;;;;;;;;;5051126;28;20033;-65
2021/03/08 00:17:51;;;;;;;4.13;3.72;;;;;;;;;;5050372;28;20029;-65
2021/03/08 00:20:18;;;;;;;4.80;3.88;;;;;;;;;;5050461;28;20020;-66
2021/03/08 00:22:45;;;;;;;9.65;4.63;;;;;;;;;;5049580;28;20036;-66
2021/03/08 00:25:15;;;;;;;4.13;3.72;;;;;;;;;;5050985;28;20031;-66
2021/03/08 00:27:42;;;;;;;4.18;3.78;;;;;;;;;;5050144;28;20017;-66
2021/03/08 00:30:09;;;;;;;4.93;3.70;;;;;;;;;;5050072;28;20033;-66
2021/03/08 00:32:35;;;;;;;4.05;3.42;;;;;;;;;;5050160;28;20045;-65
2021/03/08 00:35:02;;;;;;;4.82;3.40;;;;;;;;;;5049253;28;20470;-65
2021/03/08 00:37:31;;;;;;;4.78;3.58;;;;;;;;;;5050474;28;20059;-65
2021/03/08 00:40:01;;;;;;;4.35;3.65;;;;;;;;;;5049362;28;20434;-65
2021/03/08 00:42:27;;;;;;;4.68;4.28;;;;;;;;;;5050461;28;20096;-66
2021/03/08 00:44:54;;;;;;;4.53;3.95;;;;;;;;;;5049718;28;20053;-66
2021/03/08 00:47:21;;;;;;;3.72;3.28;;;;;;;;;;5049467;28;20043;-65
2021/03/08 00:49:47;;;;;;;4.15;3.60;;;;;;;;;;5048838;28;20059;-65
2021/03/08 00:52:13;;;;;;;5.30;4.38;;;;;;;;;;5049288;28;20037;-65
2021/03/08 00:54:40;;;;;;;3.78;3.45;;;;;;;;;;5049569;28;20025;-65
2021/03/08 00:57:06;;;;;;;5.47;4.13;;;;;;;;;;5050213;28;20112;-65
2021/03/08 00:59:32;;;;;;;5.25;3.58;;;;;;;;;;5049611;28;20356;-65
2021/03/08 01:01:58;;;;;;;4.18;3.78;;;;;;;;;;5048846;28;20036;-66
2021/03/08 01:04:24;;;;;;;6.22;4.22;;;;;;;;;;5049044;28;20068;-66
2021/03/08 01:06:50;;;;;;;5.28;3.83;;;;;;;;;;5049160;28;20049;-66
2021/03/08 01:09:17;;;;;;;12.38;5.25;;;;;;;;;;5049659;28;20033;-65
2021/03/08 01:11:43;;;;;;;4.38;3.88;;;;;;;;;;5048776;28;20032;-65
2021/03/08 01:14:09;;;;;;;4.60;3.55;;;;;;;;;;5049700;28;20025;-66
2021/03/08 01:16:36;;;;;;;4.82;4.00;;;;;;;;;;5049317;28;20043;-65
2021/03/08 01:19:02;;;;;;;6.05;4.38;;;;;;;;;;5049276;28;20025;-65
2021/03/08 01:21:28;;;;;;;4.65;4.15;;;;;;;;;;5031393;28;20047;-66
2021/03/08 01:23:54;;;;;;;4.05;3.35;;;;;;;;;;5048371;28;20449;-66
2021/03/08 01:26:20;;;;;;;5.32;4.20;;;;;;;;;;5049927;28;20036;-66
2021/03/08 01:28:47;;;;;;;4.20;3.25;;;;;;;;;;5048382;28;20025;-66
2021/03/08 01:31:13;;;;;;;3.53;3.13;;;;;;;;;;5049165;28;20484;-66
2021/03/08 01:33:39;;;;;;;6.43;4.25;;;;;;;;;;5048651;28;20029;-66
2021/03/08 01:36:05;;;;;;;5.13;3.33;;;;;;;;;;5048306;28;20462;-66
2021/03/08 01:38:32;;;;;;;4.18;3.78;;;;;;;;;;5049349;28;20444;-66
2021/03/08 01:40:58;;;;;;;4.43;4.03;;;;;;;;;;5047979;28;20056;-65
2021/03/08 01:43:24;;;;;;;4.43;3.72;;;;;;;;;;5049300;28;20024;-65
2021/03/08 01:45:51;;;;;;;4.45;3.45;;;;;;;;;;5048988;28;20435;-66
2021/03/08 01:48:17;;;;;;;5.35;4.30;;;;;;;;;;5048673;28;20546;-65
2021/03/08 01:50:44;;;;;;;4.60;3.60;;;;;;;;;;5047577;28;20025;-65
2021/03/08 01:53:12;;;;;;;4.80;3.60;;;;;;;;;;5048311;28;20033;-65
2021/03/08 01:55:38;;;;;;;5.40;4.13;;;;;;;;;;5048889;28;20460;-66
2021/03/08 01:58:05;;;;;;;4.25;3.17;;;;;;;;;;5048147;28;20111;-65
2021/03/08 02:00:31;;;;;;;4.72;3.85;;;;;;;;;;5048019;28;20025;-65
2021/03/08 02:02:58;;;;;;;6.20;5.05;;;;;;;;;;5047798;28;20036;-65
2021/03/08 02:05:29;;;;;;;4.18;3.83;;;;;;;;;;5047673;28;20017;-65
2021/03/08 02:07:55;;;;;;;4.55;3.88;;;;;;;;;;5048125;28;20064;-65
2021/03/08 02:10:22;;;;;;;3.70;3.40;;;;;;;;;;5048025;28;20033;-65
2021/03/08 02:12:48;;;;;;;3.58;3.25;;;;;;;;;;5047380;28;20041;-66
2021/03/08 02:15:29;;;;;;;5.75;3.97;;;;;;;;;;5048635;28;20052;-66
2021/03/08 02:18:14;;;;;;;6.20;3.83;;;;;;;;;;5047885;28;20156;-66
2021/03/08 02:20:58;;;;;;;5.10;4.35;;;;;;;;;;5047705;28;20032;-66
2021/03/08 02:23:24;;;;;;;;;;;;;;;;;;5048654;28;20021;-65
2021/03/08 02:26:08;;;;;;;3.95;3.58;;;;;;;;;;5048167;28;19911;-65
2021/03/08 02:28:54;;;;;;;3.22;2.92;;;;;;;;;;5048404;28;20032;-65
2021/03/08 02:31:21;;;;;;;6.55;4.10;;;;;;;;;;5047515;28;20369;-65
2021/03/08 02:33:56;;;;;;;4.40;3.75;;;;;;;;;;5047636;28;20037;-66
2021/03/08 02:36:23;;;;;;;4.32;3.60;;;;;;;;;;5047664;28;20079;-65
2021/03/08 02:38:53;;;;;;;4.13;3.45;;;;;;;;;;5047498;28;20250;-65
2021/03/08 02:41:20;;;;;;;5.15;3.45;;;;;;;;;;5047878;28;20028;-65
2021/03/08 02:43:48;;;;;;;6.25;4.90;;;;;;;;;;5047579;28;20138;-65
2021/03/08 02:46:21;;;;;;;3.70;3.10;;;;;;;;;;5048888;28;20024;-65
2021/03/08 02:48:47;;;;;;;;;;;;;;;;;;5047539;28;20218;-65
2021/03/08 02:51:14;;;;;;;5.40;2.83;;;;;;;;;;5047680;28;19905;-65
2021/03/08 02:53:41;;;;;;;5.78;3.53;;;;;;;;;;5046670;28;20045;-66
2021/03/08 02:56:11;;;;;;;4.68;3.45;;;;;;;;;;5048066;28;20119;-66
2021/03/08 02:58:39;;;;;;;3.78;3.35;;;;;;;;;;5047852;28;20025;-66
2021/03/08 03:01:05;;;;;;;3.78;3.40;;;;;;;;;;5047117;28;20029;-66
2021/03/08 03:03:32;;;;;;;6.88;3.45;;;;;;;;;;5047614;28;20439;-65
2021/03/08 03:05:59;;;;;;;6.55;4.10;;;;;;;;;;5046366;28;20028;-65
2021/03/08 03:08:27;;;;;;;4.35;3.30;;;;;;;;;;5047752;28;20520;-65
2021/03/08 03:10:54;;;;;;;5.28;3.10;;;;;;;;;;5046209;28;20063;-65
2021/03/08 03:13:21;;;;;;;3.42;3.10;;;;;;;;;;5047421;28;20045;-66
2021/03/08 03:15:48;;;;;;;5.03;3.97;;;;;;;;;;5047237;28;20035;-66
2021/03/08 03:18:15;;;;;;;3.15;2.72;;;;;;;;;;5047766;28;20727;-66
2021/03/08 03:20:42;;;;;;;3.83;2.38;;;;;;;;;;5046587;28;20025;-66
2021/03/08 03:23:09;;;;;;;3.63;3.13;;;;;;;;;;5046989;28;20025;-66
2021/03/08 03:25:36;;;;;;;4.63;3.30;;;;;;;;;;5047887;28;20507;-66
2021/03/08 03:28:02;;;;;;;3.10;2.35;;;;;;;;;;5047610;28;20029;-65
2021/03/08 03:30:29;;;;;;;3.35;2.65;;;;;;;;;;5047280;28;20029;-65
2021/03/08 03:32:56;;;;;;;4.38;2.67;;;;;;;;;;5046336;28;20037;-65
2021/03/08 03:35:22;;;;;;;2.83;2.40;;;;;;;;;;5046969;28;20048;-66
2021/03/08 03:37:49;;;;;;;4.80;2.85;;;;;;;;;;5047331;28;20044;-65
2021/03/08 03:40:17;;;;;;;2.42;2.05;;;;;;;;;;5046672;28;20484;-65
2021/03/08 03:42:44;;;;;;;2.88;2.58;;;;;;;;;;5046709;28;20398;-66
2021/03/08 03:45:11;;;;;;;2.95;1.90;;;;;;;;;;5047895;28;20025;-66
2021/03/08 03:47:38;;;;;;;2.72;2.50;;;;;;;;;;5047589;28;20315;-65
2021/03/08 03:50:05;;;;;;;1.98;1.75;;;;;;;;;;5046661;28;20025;-66
2021/03/08 03:52:31;;;;;;;4.50;3.05;;;;;;;;;;5046737;28;20557;-66
2021/03/08 03:54:57;;;;;;;2.40;2.20;;;;;;;;;;5046684;28;20408;-65
2021/03/08 03:57:24;;;;;;;4.35;2.42;;;;;;;;;;5047263;28;20029;-66
2021/03/08 03:59:52;;;;;;;2.30;2.10;;;;;;;;;;5046319;28;20431;-66
2021/03/08 04:02:23;;;;;;;1.75;1.50;;;;;;;;;;5047118;28;20017;-65
2021/03/08 04:04:53;;;;;;;3.72;2.15;;;;;;;;;;5045455;28;20079;-65
2021/03/08 04:07:19;;;;;;;1.70;1.60;;;;;;;;;;5047345;28;20041;-65
2021/03/08 04:09:48;;;;;;;2.72;1.75;;;;;;;;;;5046211;28;20076;-66
2021/03/08 04:12:14;;;;;;;1.90;1.77;;;;;;;;;;5046971;28;20036;-66
2021/03/08 04:14:42;;;;;;;2.38;1.40;;;;;;;;;;5046795;28;20029;-66
2021/03/08 04:17:09;;;;;;;1.70;1.60;;;;;;;;;;5047365;28;20342;-65
2021/03/08 04:19:36;;;;;;;2.10;1.90;;;;;;;;;;5046192;28;20040;-65
2021/03/08 04:22:03;;;;;;;1.70;1.35;;;;;;;;;;5046840;28;20033;-65
2021/03/08 04:24:30;;;;;;;2.92;1.65;;;;;;;;;;5050711;28;20042;-65
2021/03/08 04:26:58;;;;;;;1.95;1.77;;;;;;;;;;5050013;28;20087;-66
2021/03/08 04:29:24;;;;;;;1.83;1.70;;;;;;;;;;5050491;28;20104;-65
2021/03/08 04:31:50;;;;;;;1.70;1.60;;;;;;;;;;5049227;28;20350;-65
2021/03/08 04:34:17;;;;;;;1.70;1.60;;;;;;;;;;5049893;28;20411;-65
2021/03/08 04:36:44;;;;;;;1.67;1.13;;;;;;;;;;5049658;28;20032;-65
2021/03/08 04:39:11;;;;;;;1.42;1.33;;;;;;;;;;5050654;28;20108;-65
2021/03/08 04:41:37;;;;;;;1.95;1.85;;;;;;;;;;5049827;28;20468;-65
2021/03/08 04:44:04;;;;;;;2.20;1.58;;;;;;;;;;5050401;28;20500;-65
2021/03/08 04:46:31;;;;;;;1.65;1.23;;;;;;;;;;5050278;28;20111;-66
2021/03/08 04:48:58;;;;;;;1.83;1.50;;;;;;;;;;5049279;28;20044;-65
2021/03/08 04:51:24;;;;;;;1.17;1.08;;;;;;;;;;5049659;28;20036;-66
2021/03/08 04:53:51;;;;;;;1.80;1.70;;;;;;;;;;5049230;28;20052;-65
2021/03/08 04:56:17;;;;;;;1.33;1.23;;;;;;;;;;5050041;28;20568;-65
2021/03/08 04:58:44;;;;;;;1.33;1.00;;;;;;;;;;5049117;28;20033;-65
2021/03/08 05:01:10;;;;;;;1.10;1.10;;;;;;;;;;5049294;28;20032;-65
2021/03/08 05:03:38;;;;;;;1.30;1.20;;;;;;;;;;5049352;28;20029;-65
2021/03/08 05:06:05;;;;;;;1.20;1.10;;;;;;;;;;5049089;28;20091;-65
2021/03/08 05:08:32;;;;;;;1.33;1.23;;;;;;;;;;5049731;28;20116;-65
2021/03/08 05:10:58;;;;;;;1.10;1.00;;;;;;;;;;5048583;28;20112;-65
2021/03/08 05:13:24;;;;;;;1.25;1.15;;;;;;;;;;5049566;28;20045;-66
2021/03/08 05:15:53;;;;;;;1.00;0.80;;;;;;;;;;5049107;28;20036;-66
2021/03/08 05:18:22;;;;;;;1.23;1.13;;;;;;;;;;5049402;28;20449;-65
2021/03/08 05:20:48;;;;;;;1.60;1.50;;;;;;;;;;5048205;28;20039;-66
2021/03/08 05:23:15;;;;;;;1.35;1.20;;;;;;;;;;5048547;28;20060;-65
2021/03/08 05:25:41;;;;;;;1.20;0.90;;;;;;;;;;5049263;28;20471;-65
2021/03/08 05:28:09;;;;;;;0.60;0.60;;;;;;;;;;5049452;28;20152;-66
2021/03/08 05:30:35;;;;;;;1.20;1.13;;;;;;;;;;5049056;28;20396;-65
2021/03/08 05:33:03;;;;;;;0.70;0.70;;;;;;;;;;5048370;28;20096;-66
2021/03/08 05:35:30;;;;;;;0.95;0.88;;;;;;;;;;5048660;28;20040;-66
2021/03/08 05:37:56;;;;;;;0.80;0.80;;;;;;;;;;5048628;28;20594;-66
2021/03/08 05:40:22;;;;;;;2.40;1.25;;;;;;;;;;5048804;28;20108;-65
2021/03/08 05:42:52;;;;;;;0.82;0.82;;;;;;;;;;5048666;28;20024;-65
2021/03/08 05:45:24;;;;;;;2.55;1.10;;;;;;;;;;5049460;28;20124;-65
2021/03/08 05:47:53;;;;;;;0.70;0.70;;;;;;;;;;5048807;28;20029;-66
2021/03/08 05:50:38;;;;;;;2.63;1.00;;;;;;;;;;5048242;28;20531;-65
2021/03/08 05:53:04;;;;;;;0.98;0.98;;;;;;;;;;5048475;28;20040;-65
2021/03/08 05:55:50;;;;;;;1.52;1.42;;;;;;;;;;5049223;28;20028;-65
2021/03/08 05:58:25;;;;;;;0.90;0.90;;;;;;;;;;4998488;28;20111;-65
2021/03/08 06:00:51;;;;;;;1.38;1.27;;;;;;;;;;5047370;28;20092;-65
2021/03/08 06:03:36;;;;;;;1.63;1.52;;;;;;;;;;5048694;28;20040;-65
2021/03/08 06:06:17;;;;;;;0.75;0.75;;;;;;;;;;5047572;28;20025;-65
2021/03/08 06:09:04;;;;;;;2.22;1.30;;;;;;;;;;5028679;28;20122;-65
2021/03/08 06:11:33;;;;;;;16.67;1.35;;;;;;;;;;5011255;28;20128;-65
2021/03/08 06:14:00;;;;;;;1.95;1.77;;;;;;;;;;5028095;28;20140;-65
2021/03/08 06:16:32;;;;;;;1.38;1.27;;;;;;;;;;5028854;28;20033;-65
2021/03/08 06:19:00;;;;;;;0.95;0.82;;;;;;;;;;5028086;28;20064;-65
2021/03/08 06:21:26;;;;;;;1.25;0.85;;;;;;;;;;5027871;28;20109;-66
2021/03/08 06:23:53;;;;;;;0.75;0.73;;;;;;;;;;5027619;28;20495;-66
2021/03/08 06:26:19;;;;;;;0.80;0.80;;;;;;;;;;5028830;28;20036;-66
2021/03/08 06:28:46;;;;;;;0.95;0.80;;;;;;;;;;5028147;28;20030;-66
2021/03/08 06:31:12;;;;;;;1.40;1.00;;;;;;;;;;5027841;28;20444;-66
2021/03/08 06:33:38;;;;;;;2.33;0.85;;;;;;;;;;5027723;28;20038;-66
2021/03/08 06:36:05;;;;;;;1.10;1.00;;;;;;;;;;5027458;28;20476;-66
2021/03/08 06:38:32;;;;;;;1.25;1.15;;;;;;;;;;5028492;28;20037;-65
2021/03/08 06:40:59;;;;;;;0.90;0.65;;;;;;;;;;5026809;28;20034;-65
2021/03/08 06:43:28;;;;;;;1.45;1.35;;;;;;;;;;5028564;28;20404;-65
2021/03/08 06:45:55;;;;;;;0.90;0.80;;;;;;;;;;5027133;28;20062;-65
2021/03/08 06:48:22;;;;;;;0.60;0.40;;;;;;;;;;5028766;28;20021;-66
2021/03/08 06:50:48;;;;;;;0.82;0.82;;;;;;;;;;5027207;28;20029;-66
2021/03/08 06:53:30;;;;;;;0.63;0.63;;;;;;;;;;5020743;28;20539;-66
2021/03/08 06:56:15;;;;;;;0.93;0.50;;;;;;;;;;5026817;28;20104;-68
2021/03/08 06:58:41;;;;;;;0.65;0.65;;;;;;;;;;5017020;28;20033;-65
2021/03/08 07:01:33;;;;;;;0.60;0.60;;;;;;;;;;5011333;28;20032;-65
2021/03/08 07:04:00;;;;;;;2.58;1.67;;;;;;;;;;5022987;28;20041;-65
2021/03/08 07:06:27;;;;;;;0.50;0.50;;;;;;;;;;5022473;28;20052;-66
2021/03/08 07:09:04;;;;;;;0.52;0.52;;;;;;;;;;5059024;28;20478;-65
2021/03/08 07:11:30;;;;;;;1.98;0.60;;;;;;;;;;5028555;28;20104;-65
2021/03/08 07:13:56;;;;;;;0.50;0.50;;;;;;;;;;5043382;28;20045;-65
2021/03/08 07:16:33;;;;;;;0.50;0.50;;;;;;;;;;5029660;28;20029;-65
2021/03/08 07:18:59;;;;;;;1.20;0.68;;;;;;;;;;5039388;28;20040;-65
2021/03/08 07:21:25;;;;;;;1.67;1.38;;;;;;;;;;5044344;28;20061;-65
2021/03/08 07:23:52;;;;;;;0.30;0.30;;;;;;;;;;5037571;28;20037;-65
2021/03/08 07:26:22;;;;;;;1.00;0.60;;;;;;;;;;5033550;28;20525;-65
2021/03/08 07:29:11;;;;;;;0.35;0.35;;;;;;;;;;5034542;28;20431;-65
2021/03/08 07:31:41;;;;;;;1.08;0.80;;;;;;;;;;5020759;28;20072;-65
2021/03/08 07:34:09;;;;;;;2.15;0.80;;;;;;;;;;5044568;28;20044;-65
2021/03/08 07:36:38;;;;;;;1.13;0.95;;;;;;;;;;5055451;28;20383;-68
2021/03/08 07:39:11;;;;;;;1.85;0.80;;;;;;;;;;5064859;28;20032;-67
2021/03/08 07:41:50;;;;;;;0.95;0.60;;;;;;;;;;5046433;28;20233;-66
2021/03/08 07:44:16;;;;;;;0.50;0.47;;;;;;;;;;5050309;28;20025;-65
2021/03/08 07:46:42;;;;;;;0.90;0.85;;;;;;;;;;5032566;28;20163;-65
2021/03/08 07:49:08;;;;;;;2.33;0.90;;;;;;;;;;5035413;28;20032;-65
2021/03/08 07:51:34;;;;;;;3.03;1.15;;;;;;;;;;5030577;28;20031;-65
2021/03/08 07:54:00;;;;;;;0.50;0.50;;;;;;;;;;5041643;28;20075;-68
2021/03/08 07:56:27;;;;;;;4.03;0.75;;;;;;;;;;5030827;28;20099;-70
2021/03/08 07:58:54;;;;;;;1.38;1.17;;;;;;;;;;5043265;28;20033;-65
2021/03/08 08:01:20;;;;;;;1.30;0.75;;;;;;;;;;5052803;28;20529;-65
2021/03/08 08:03:47;;;;;;;0.82;0.82;;;;;;;;;;5047490;28;20040;-64
2021/03/08 08:06:13;;;;;;;2.58;1.27;;;;;;;;;;5045994;28;20148;-64
2021/03/08 08:08:44;;;;;;;2.33;0.57;;;;;;;;;;5043048;28;20025;-64
2021/03/08 08:11:10;;;;;;;2.53;0.90;;;;;;;;;;5047115;28;20047;-64
2021/03/08 08:13:36;;;;;;;0.93;0.80;;;;;;;;;;5046063;28;20045;-64
2021/03/08 08:16:04;;;;;;;0.50;0.50;;;;;;;;;;5042663;28;20121;-64
2021/03/08 08:18:31;;;;;;;1.52;0.70;;;;;;;;;;5048399;28;21788;-65
2021/03/08 08:20:58;;;;;;;1.15;0.90;;;;;;;;;;5043474;28;20033;-65
2021/03/08 08:23:27;;;;;;;4.18;1.23;;;;;;;;;;5041959;28;20503;-64
2021/03/08 08:25:53;;;;;;;1.85;0.90;;;;;;;;;;5043949;28;20097;-64
2021/03/08 08:28:19;;;;;;;3.78;0.82;;;;;;;;;;5025599;28;20020;-64
2021/03/08 08:30:55;;;;;;;0.82;0.70;;;;;;;;;;5041305;28;20028;-64
2021/03/08 08:33:31;;;;;;;1.88;0.57;;;;;;;;;;5043718;28;20079;-64
2021/03/08 08:36:07;;;;;;;0.75;0.68;;;;;;;;;;5036333;28;20032;-64
2021/03/08 08:38:33;;;;;;;0.65;0.65;;;;;;;;;;5035754;28;20032;-64
2021/03/08 08:41:18;;;;;;;0.93;0.80;;;;;;;;;;5034923;28;20039;-64
2021/03/08 08:43:45;;;;;;;1.70;0.82;;;;;;;;;;5032096;28;20415;-65
2021/03/08 08:46:25;;;;;;;1.00;1.00;;;;;;;;;;5038442;28;20025;-65
2021/03/08 08:49:08;;;;;;;0.70;0.68;;;;;;;;;;5033759;28;20048;-65
2021/03/08 08:51:53;;;;;;;2.17;1.17;;;;;;;;;;5035591;28;20389;-65
2021/03/08 08:54:28;;;;;;;1.90;1.00;;;;;;;;;;5037133;28;20037;-65
2021/03/08 08:57:00;;;;;;;0.75;0.75;;;;;;;;;;5033917;28;20067;-65
2021/03/08 08:59:27;;;;;;;4.72;0.60;;;;;;;;;;5035697;28;20044;-67
2021/03/08 09:02:17;;;;;;;2.45;0.65;;;;;;;;;;5030103;28;20022;-65
2021/03/08 09:04:43;;;;;;;4.82;1.15;;;;;;;;;;5033929;28;20910;-65
2021/03/08 09:07:22;;;;;;;2.78;0.75;;;;;;;;;;5032984;28;20053;-65
2021/03/08 09:09:49;;;;;;;0.95;0.50;;;;;;;;;;5033912;28;20067;-65
2021/03/08 09:12:30;;;;;;;2.42;0.70;;;;;;;;;;5035812;28;20055;-65
2021/03/08 09:14:57;;;;;;;1.60;0.63;;;;;;;;;;5035259;28;20344;-65
2021/03/08 09:17:27;;;;;;;1.25;0.80;;;;;;;;;;5033044;28;20040;-67
2021/03/08 09:19:56;;;;;;;0.82;0.60;;;;;;;;;;5032919;28;20060;-66
2021/03/08 09:22:28;;;;;;;0.85;0.63;;;;;;;;;;5035095;28;20029;-65
2021/03/08 09:24:57;;;;;;;2.90;0.60;;;;;;;;;;5030343;28;20134;-66
2021/03/08 09:27:24;;;;;;;1.15;0.60;;;;;;;;;;5032377;28;20025;-64
2021/03/08 09:29:50;;;;;;;1.52;0.80;;;;;;;;;;5036042;28;20025;-68
2021/03/08 09:32:16;;;;;;;3.00;0.90;;;;;;;;;;5035015;28;20128;-65
2021/03/08 09:34:42;;;;;;;2.72;0.80;;;;;;;;;;5035075;28;20067;-66
2021/03/08 09:37:09;;;;;;;1.10;0.90;;;;;;;;;;5016758;28;20041;-66
2021/03/08 09:39:55;;;;;;;2.30;1.20;;;;;;;;;;5037196;28;20041;-66
2021/03/08 09:42:22;;;;;;;2.22;0.57;;;;;;;;;;5037217;28;20189;-66
2021/03/08 09:44:49;;;;;;;0.65;0.65;;;;;;;;;;5035237;28;20033;-66
2021/03/08 09:47:15;;;;;;;1.55;0.73;;;;;;;;;;5034318;28;20458;-66
2021/03/08 09:49:52;;;;;;;1.52;0.80;;;;;;;;;;5033393;28;20546;-66
2021/03/08 09:52:30;;;;;;;1.58;0.75;;;;;;;;;;5053359;28;20033;-65
2021/03/08 09:54:57;;;;;;;1.00;0.55;;;;;;;;;;5055399;28;20021;-66
2021/03/08 09:57:32;;;;;;;3.75;0.98;;;;;;;;;;5054046;28;20100;-65
2021/03/08 09:59:58;;;;;;;4.43;1.75;;;;;;;;;;5052714;28;20887;-65
2021/03/08 10:02:25;;;;;;;1.35;0.80;;;;;;;;;;5057225;28;21264;-66
2021/03/08 10:04:58;;;;;;;3.58;1.15;;;;;;;;;;5053817;28;20447;-66
2021/03/08 10:07:24;;;;;;;1.33;0.75;;;;;;;;;;5053029;28;20495;-65
2021/03/08 10:10:10;;;;;;;0.57;0.57;;;;;;;;;;5055711;28;21144;-65
2021/03/08 10:12:36;;;;;;;4.28;0.75;;;;;;;;;;5057945;28;20078;-65
2021/03/08 10:15:05;;;;;;;4.03;0.73;;;;;;;;;;5058182;28;20056;-66
2021/03/08 10:17:31;;;;;;;2.33;1.30;;;;;;;;;;5054516;28;20123;-65
2021/03/08 10:19:58;;;;;;;2.30;0.95;;;;;;;;;;5055949;28;20075;-66
2021/03/08 10:22:37;;;;;;;3.13;1.08;;;;;;;;;;5056485;28;20507;-67
2021/03/08 10:25:17;;;;;;;1.00;0.90;;;;;;;;;;5057629;28;20030;-67
2021/03/08 10:27:44;;;;;;;1.00;0.98;;;;;;;;;;5052533;28;20491;-64
2021/03/08 10:30:14;;;;;;;1.15;1.05;;;;;;;;;;5057355;28;20588;-64
2021/03/08 10:32:41;;;;;;;0.82;0.82;;;;;;;;;;5050333;28;20056;-65
2021/03/08 10:35:08;;;;;;;0.88;0.55;;;;;;;;;;5054516;28;20475;-67
2021/03/08 10:37:34;;;;;;;2.65;0.60;;;;;;;;;;5052753;28;20028;-66
2021/03/08 10:40:01;;;;;;;2.53;0.68;;;;;;;;;;5055784;28;20068;-65
2021/03/08 10:42:27;;;;;;;2.03;1.00;;;;;;;;;;5056686;28;20727;-65
2021/03/08 10:44:54;;;;;;;0.93;0.60;;;;;;;;;;5055393;28;20446;-65
2021/03/08 10:47:20;;;;;;;0.93;0.93;;;;;;;;;;5050843;28;20070;-65
2021/03/08 10:49:50;;;;;;;1.75;0.98;;;;;;;;;;5055827;28;20276;-65
2021/03/08 10:52:16;;;;;;;0.90;0.90;;;;;;;;;;5055480;28;20123;-65
2021/03/08 10:54:44;;;;;;;2.17;0.70;;;;;;;;;;5055762;28;20032;-67
2021/03/08 10:57:10;;;;;;;2.28;0.75;;;;;;;;;;5052672;28;20391;-67
2021/03/08 10:59:44;;;;;;;1.02;0.95;;;;;;;;;;5055879;28;20839;-65
2021/03/08 11:02:10;;;;;;;2.88;1.00;;;;;;;;;;5054640;28;20051;-66
2021/03/08 11:04:37;;;;;;;1.98;1.33;;;;;;;;;;5054115;28;20048;-66
2021/03/08 11:07:03;;;;;;;8.82;1.63;;;;;;;;;;5048834;28;20065;-66
2021/03/08 11:09:30;;;;;;;2.53;0.73;;;;;;;;;;5055570;28;20040;-65
2021/03/08 11:11:57;;;;;;;2.22;1.35;;;;;;;;;;5050960;28;20052;-66
2021/03/08 11:14:23;;;;;;;3.25;1.60;;;;;;;;;;5053037;28;20050;-65
2021/03/08 11:16:53;;;;;;;2.05;1.67;;;;;;;;;;5054412;28;20062;-66
2021/03/08 11:19:20;;;;;;;1.38;1.20;;;;;;;;;;5053736;28;20445;-66
2021/03/08 11:21:47;;;;;;;2.88;1.08;;;;;;;;;;5055711;28;20035;-65
2021/03/08 11:24:24;;;;;;;2.28;0.90;;;;;;;;;;5055460;28;20119;-67
2021/03/08 11:27:09;;;;;;;5.20;1.42;;;;;;;;;;5049746;28;20033;-66
2021/03/08 11:29:36;;;;;;;2.58;2.13;;;;;;;;;;5056828;28;20690;-65
2021/03/08 11:32:02;;;;;;;3.00;1.00;;;;;;;;;;5058049;28;20032;-65
2021/03/08 11:34:44;;;;;;;3.78;1.38;;;;;;;;;;5059636;28;20193;-65
2021/03/08 11:37:22;;;;;;;3.33;1.60;;;;;;;;;;5057089;28;20040;-65
2021/03/08 11:39:52;;;;;;;1.25;1.17;;;;;;;;;;5056724;28;20370;-66
2021/03/08 11:42:19;;;;;;;1.52;1.42;;;;;;;;;;5059480;28;20473;-65
2021/03/08 11:44:46;;;;;;;2.78;2.28;;;;;;;;;;5058828;28;20048;-66
2021/03/08 11:47:12;;;;;;;1.65;1.48;;;;;;;;;;5056198;28;20025;-66
2021/03/08 11:49:39;;;;;;;2.45;1.92;;;;;;;;;;5054251;28;20029;-66
2021/03/08 11:52:05;;;;;;;3.15;1.25;;;;;;;;;;5057371;28;20025;-65
2021/03/08 11:54:31;;;;;;;2.15;1.30;;;;;;;;;;5059347;28;20059;-66
2021/03/08 11:56:58;;;;;;;3.95;1.58;;;;;;;;;;5053516;28;21250;-65
2021/03/08 11:59:24;;;;;;;1.52;1.27;;;;;;;;;;5058346;28;20511;-65
2021/03/08 12:01:50;;;;;;;1.98;1.55;;;;;;;;;;5054108;28;20028;-65
2021/03/08 12:04:16;;;;;;;1.50;1.40;;;;;;;;;;5058407;28;20029;-64
2021/03/08 12:06:42;;;;;;;1.98;1.83;;;;;;;;;;5056376;28;20101;-65
2021/03/08 12:09:08;;;;;;;2.10;1.25;;;;;;;;;;5058999;28;20062;-65
2021/03/08 12:11:34;;;;;;;2.15;1.35;;;;;;;;;;5059269;28;20882;-65
2021/03/08 12:14:00;;;;;;;2.53;1.55;;;;;;;;;;5041292;28;20575;-66
2021/03/08 12:16:26;;;;;;;1.70;1.50;;;;;;;;;;5059916;28;20098;-66
2021/03/08 12:18:52;;;;;;;2.55;1.33;;;;;;;;;;5057255;28;20032;-65
2021/03/08 12:21:22;;;;;;;1.35;1.25;;;;;;;;;;5060023;28;20449;-66
2021/03/08 12:23:48;;;;;;;2.35;1.63;;;;;;;;;;5057641;28;20116;-65
2021/03/08 12:26:15;;;;;;;5.07;2.85;;;;;;;;;;5059321;28;20028;-69
2021/03/08 12:28:41;;;;;;;2.50;2.08;;;;;;;;;;5051920;28;20079;-67
2021/03/08 12:31:07;;;;;;;3.08;2.58;;;;;;;;;;5060255;28;20036;-66
2021/03/08 12:33:33;;;;;;;2.35;2.00;;;;;;;;;;5056443;28;20044;-65
2021/03/08 12:36:02;;;;;;;4.10;1.88;;;;;;;;;;5054382;28;20522;-66
2021/03/08 12:38:29;;;;;;;2.70;2.38;;;;;;;;;;5055234;28;21311;-66
2021/03/08 12:40:55;;;;;;;2.95;2.03;;;;;;;;;;5057643;28;20035;-66
2021/03/08 12:43:21;;;;;;;3.08;1.50;;;;;;;;;;5045986;28;20061;-66
2021/03/08 12:45:47;;;;;;;2.38;1.67;;;;;;;;;;5057701;28;20541;-66
2021/03/08 12:48:13;;;;;;;3.58;1.85;;;;;;;;;;5056438;28;20036;-65
2021/03/08 12:50:39;;;;;;;2.00;1.77;;;;;;;;;;5057243;28;20073;-66
2021/03/08 12:53:06;;;;;;;4.00;1.45;;;;;;;;;;5058249;28;20065;-66
2021/03/08 12:55:32;;;;;;;3.85;1.70;;;;;;;;;;5057711;28;20032;-66
2021/03/08 12:57:59;;;;;;;1.60;1.30;;;;;;;;;;5054069;28;20056;-66
2021/03/08 13:00:25;;;;;;;1.63;1.30;;;;;;;;;;5055750;28;20453;-66
2021/03/08 13:02:51;;;;;;;1.92;1.55;;;;;;;;;;5056036;28;20036;-65
2021/03/08 13:05:17;;;;;;;1.98;1.83;;;;;;;;;;5056574;28;20628;-66
2021/03/08 13:07:43;;;;;;;2.70;2.35;;;;;;;;;;5053125;28;20052;-65
2021/03/08 13:10:10;;;;;;;3.65;2.05;;;;;;;;;;5058236;28;20684;-65
2021/03/08 13:12:36;;;;;;;3.25;2.13;;;;;;;;;;5054654;28;20356;-66
2021/03/08 13:15:03;;;;;;;5.18;2.47;;;;;;;;;;5055792;28;20028;-65
2021/03/08 13:17:29;;;;;;;1.88;1.55;;;;;;;;;;5055660;28;20118;-66
2021/03/08 13:19:55;;;;;;;2.55;1.60;;;;;;;;;;5058309;28;20421;-65
2021/03/08 13:22:21;;;;;;;3.10;1.65;;;;;;;;;;5060161;28;20021;-66
2021/03/08 13:24:47;;;;;;;3.58;1.98;;;;;;;;;;5059417;28;20094;-66
2021/03/08 13:27:13;;;;;;;2.85;1.20;;;;;;;;;;5052672;28;20127;-66
2021/03/08 13:29:39;;;;;;;2.13;1.60;;;;;;;;;;5056133;28;20133;-66
2021/03/08 13:32:06;;;;;;;1.65;1.48;;;;;;;;;;5057989;28;20032;-66
2021/03/08 13:34:35;;;;;;;2.30;1.58;;;;;;;;;;5059973;28;20036;-68
2021/03/08 13:37:02;;;;;;;1.40;1.30;;;;;;;;;;5065509;28;20025;-67
2021/03/08 13:39:28;;;;;;;2.00;1.52;;;;;;;;;;5060846;28;20260;-67
2021/03/08 13:41:55;;;;;;;1.92;1.70;;;;;;;;;;5055872;28;20074;-67
2021/03/08 13:44:22;;;;;;;1.40;1.30;;;;;;;;;;5059703;28;20069;-67
2021/03/08 13:46:49;;;;;;;3.42;1.67;;;;;;;;;;5057071;28;20037;-67
2021/03/08 13:49:15;;;;;;;1.58;1.48;;;;;;;;;;5059381;28;20028;-66
2021/03/08 13:51:41;;;;;;;2.83;2.00;;;;;;;;;;5058017;28;20478;-67
2021/03/08 13:54:07;;;;;;;4.82;2.35;;;;;;;;;;5057065;28;20048;-66
2021/03/08 13:56:33;;;;;;;6.15;2.42;;;;;;;;;;5059891;28;20099;-66
2021/03/08 13:58:59;;;;;;;7.25;1.67;;;;;;;;;;5053840;28;20036;-66
2021/03/08 14:01:25;;;;;;;6.65;1.85;;;;;;;;;;5057974;28;20037;-66
2021/03/08 14:03:51;;;;;;;3.13;1.58;;;;;;;;;;5055023;28;20041;-67
2021/03/08 14:06:18;;;;;;;3.75;2.30;;;;;;;;;;5056831;28;20084;-66
2021/03/08 14:08:44;;;;;;;5.07;1.60;;;;;;;;;;5056880;28;20411;-66
2021/03/08 14:11:11;;;;;;;1.98;1.63;;;;;;;;;;5057764;28;20033;-66
2021/03/08 14:13:37;;;;;;;2.47;1.77;;;;;;;;;;5055193;28;20738;-66
2021/03/08 14:16:03;;;;;;;3.00;2.28;;;;;;;;;;5058249;28;20040;-67
2021/03/08 14:18:29;;;;;;;2.67;1.70;;;;;;;;;;5058652;28;20032;-66
2021/03/08 14:20:55;;;;;;;1.80;1.63;;;;;;;;;;5057248;28;20055;-66
2021/03/08 14:23:21;;;;;;;2.70;1.65;;;;;;;;;;5055492;28;20040;-66
2021/03/08 14:25:47;;;;;;;2.08;1.40;;;;;;;;;;5057071;28;20697;-66
2021/03/08 14:28:13;;;;;;;3.90;1.13;;;;;;;;;;5057815;28;20027;-66
2021/03/08 14:30:39;;;;;;;2.10;1.70;;;;;;;;;;5056533;28;20036;-66
2021/03/08 14:33:06;;;;;;;1.88;1.40;;;;;;;;;;5052224;28;20167;-66
2021/03/08 14:35:33;;;;;;;1.73;1.63;;;;;;;;;;5055539;28;20071;-67
2021/03/08 14:37:59;;;;;;;1.35;1.20;;;;;;;;;;5052265;28;20064;-66
2021/03/08 14:40:27;;;;;;;3.75;1.80;;;;;;;;;;5056979;28;20032;-66
2021/03/08 14:42:54;;;;;;;2.80;1.67;;;;;;;;;;5052479;28;20041;-69
2021/03/08 14:45:20;;;;;;;2.03;1.45;;;;;;;;;;5058056;28;20064;-67
2021/03/08 14:47:46;;;;;;;1.55;0.88;;;;;;;;;;5060867;28;20037;-66
2021/03/08 14:50:12;;;;;;;1.13;1.05;;;;;;;;;;5062720;28;20021;-66